sensor_id;sensor_type;location;lat;lon;timestamp;P1;durP1;ratioP1;P2;durP2;ratioP2
15936;SDS011;9163;48.818;8.976;2023-11-21T00:00:17;7.03;;;2.40;;
15936;SDS011;9163;48.818;8.976;2023-11-21T00:02:45;4.60;;;2.10;;
15936;SDS011;9163;48.818;8.976;2023-11-21T00:05:13;7.07;;;2.20;;
15936;SDS011;9163;48.818;8.976;2023-11-21T00:07:41;4.03;;;1.80;;
15936;SDS011;9163;48.818;8.976;2023-11-21T00:10:11;6.23;;;1.90;;
15936;SDS011;9163;48.818;8.976;2023-11-21T00:12:41;5.90;;;2.17;;
15936;SDS011;9163;48.818;8.976;2023-11-21T00:15:09;5.80;;;2.10;;
15936;SDS011;9163;48.818;8.976;2023-11-21T00:17:37;7.10;;;2.13;;
15936;SDS011;9163;48.818;8.976;2023-11-21T00:20:05;5.40;;;1.60;;
15936;SDS011;9163;48.818;8.976;2023-11-21T00:22:33;6.10;;;1.70;;
15936;SDS011;9163;48.818;8.976;2023-11-21T00:25:01;3.97;;;1.30;;
15936;SDS011;9163;48.818;8.976;2023-11-21T00:27:30;4.20;;;1.50;;
15936;SDS011;9163;48.818;8.976;2023-11-21T00:29:58;3.47;;;1.20;;
15936;SDS011;9163;48.818;8.976;2023-11-21T00:32:25;7.67;;;1.70;;
15936;SDS011;9163;48.818;8.976;2023-11-21T00:34:52;3.20;;;1.10;;
15936;SDS011;9163;48.818;8.976;2023-11-21T00:37:20;4.27;;;1.60;;
15936;SDS011;9163;48.818;8.976;2023-11-21T00:39:47;4.03;;;1.53;;
15936;SDS011;9163;48.818;8.976;2023-11-21T00:42:14;3.93;;;1.60;;
15936;SDS011;9163;48.818;8.976;2023-11-21T00:44:43;3.27;;;1.47;;
15936;SDS011;9163;48.818;8.976;2023-11-21T00:47:10;4.73;;;1.53;;
15936;SDS011;9163;48.818;8.976;2023-11-21T00:49:37;5.27;;;1.47;;
15936;SDS011;9163;48.818;8.976;2023-11-21T00:52:05;4.63;;;1.47;;
15936;SDS011;9163;48.818;8.976;2023-11-21T00:54:33;5.60;;;1.53;;
15936;SDS011;9163;48.818;8.976;2023-11-21T00:57:00;6.93;;;1.60;;
15936;SDS011;9163;48.818;8.976;2023-11-21T00:59:27;5.03;;;2.00;;
15936;SDS011;9163;48.818;8.976;2023-11-21T01:01:57;5.43;;;2.00;;
15936;SDS011;9163;48.818;8.976;2023-11-21T01:04:25;3.77;;;2.00;;
15936;SDS011;9163;48.818;8.976;2023-11-21T01:06:53;6.97;;;2.60;;
15936;SDS011;9163;48.818;8.976;2023-11-21T01:09:20;6.83;;;2.30;;
15936;SDS011;9163;48.818;8.976;2023-11-21T01:11:47;6.60;;;2.50;;
15936;SDS011;9163;48.818;8.976;2023-11-21T01:14:15;5.30;;;2.30;;
15936;SDS011;9163;48.818;8.976;2023-11-21T01:16:43;7.00;;;2.57;;
15936;SDS011;9163;48.818;8.976;2023-11-21T01:19:11;8.73;;;2.60;;
15936;SDS011;9163;48.818;8.976;2023-11-21T01:21:39;7.67;;;2.13;;
15936;SDS011;9163;48.818;8.976;2023-11-21T01:24:06;8.27;;;2.23;;
15936;SDS011;9163;48.818;8.976;2023-11-21T01:26:34;4.73;;;1.90;;
15936;SDS011;9163;48.818;8.976;2023-11-21T01:29:01;4.57;;;1.90;;
15936;SDS011;9163;48.818;8.976;2023-11-21T01:31:28;6.20;;;1.80;;
15936;SDS011;9163;48.818;8.976;2023-11-21T01:33:56;3.70;;;1.87;;
15936;SDS011;9163;48.818;8.976;2023-11-21T01:36:30;4.50;;;1.93;;
15936;SDS011;9163;48.818;8.976;2023-11-21T01:38:59;5.87;;;1.87;;
15936;SDS011;9163;48.818;8.976;2023-11-21T01:41:26;5.57;;;2.13;;
15936;SDS011;9163;48.818;8.976;2023-11-21T01:43:54;4.23;;;2.20;;
15936;SDS011;9163;48.818;8.976;2023-11-21T01:46:21;7.30;;;2.03;;
15936;SDS011;9163;48.818;8.976;2023-11-21T01:48:49;4.50;;;1.80;;
15936;SDS011;9163;48.818;8.976;2023-11-21T01:51:18;5.23;;;1.90;;
15936;SDS011;9163;48.818;8.976;2023-11-21T01:53:47;7.63;;;2.20;;
15936;SDS011;9163;48.818;8.976;2023-11-21T01:56:14;6.60;;;2.00;;
15936;SDS011;9163;48.818;8.976;2023-11-21T01:58:42;6.13;;;1.90;;
15936;SDS011;9163;48.818;8.976;2023-11-21T02:01:12;4.50;;;1.80;;
15936;SDS011;9163;48.818;8.976;2023-11-21T02:03:39;4.87;;;1.83;;
15936;SDS011;9163;48.818;8.976;2023-11-21T02:06:07;5.43;;;1.70;;
15936;SDS011;9163;48.818;8.976;2023-11-21T02:08:35;3.37;;;1.60;;
15936;SDS011;9163;48.818;8.976;2023-11-21T02:11:04;4.90;;;2.00;;
15936;SDS011;9163;48.818;8.976;2023-11-21T02:13:32;4.30;;;1.90;;
15936;SDS011;9163;48.818;8.976;2023-11-21T02:16:00;4.50;;;1.70;;
15936;SDS011;9163;48.818;8.976;2023-11-21T02:18:28;5.43;;;2.13;;
15936;SDS011;9163;48.818;8.976;2023-11-21T02:20:55;4.97;;;2.10;;
15936;SDS011;9163;48.818;8.976;2023-11-21T02:23:24;7.53;;;2.20;;
15936;SDS011;9163;48.818;8.976;2023-11-21T02:25:54;7.23;;;1.97;;
15936;SDS011;9163;48.818;8.976;2023-11-21T02:28:21;6.47;;;2.00;;
15936;SDS011;9163;48.818;8.976;2023-11-21T02:30:51;6.73;;;2.53;;
15936;SDS011;9163;48.818;8.976;2023-11-21T02:33:21;7.40;;;2.60;;
15936;SDS011;9163;48.818;8.976;2023-11-21T02:35:48;4.63;;;2.37;;
15936;SDS011;9163;48.818;8.976;2023-11-21T02:38:16;7.30;;;2.70;;
15936;SDS011;9163;48.818;8.976;2023-11-21T02:40:45;8.20;;;2.33;;
15936;SDS011;9163;48.818;8.976;2023-11-21T02:43:12;4.70;;;2.30;;
15936;SDS011;9163;48.818;8.976;2023-11-21T02:45:40;8.00;;;2.47;;
15936;SDS011;9163;48.818;8.976;2023-11-21T02:48:07;4.77;;;2.63;;
15936;SDS011;9163;48.818;8.976;2023-11-21T02:50:34;6.10;;;2.57;;
15936;SDS011;9163;48.818;8.976;2023-11-21T02:53:02;7.87;;;2.70;;
15936;SDS011;9163;48.818;8.976;2023-11-21T02:55:31;7.67;;;2.77;;
15936;SDS011;9163;48.818;8.976;2023-11-21T02:58:02;3.73;;;2.33;;
15936;SDS011;9163;48.818;8.976;2023-11-21T03:00:30;8.93;;;2.90;;
15936;SDS011;9163;48.818;8.976;2023-11-21T03:02:57;6.70;;;3.13;;
15936;SDS011;9163;48.818;8.976;2023-11-21T03:05:26;6.27;;;2.47;;
15936;SDS011;9163;48.818;8.976;2023-11-21T03:07:54;5.80;;;2.33;;
15936;SDS011;9163;48.818;8.976;2023-11-21T03:10:22;5.93;;;2.47;;
15936;SDS011;9163;48.818;8.976;2023-11-21T03:12:49;6.50;;;2.77;;
15936;SDS011;9163;48.818;8.976;2023-11-21T03:15:18;5.77;;;2.60;;
15936;SDS011;9163;48.818;8.976;2023-11-21T03:17:45;5.47;;;2.43;;
15936;SDS011;9163;48.818;8.976;2023-11-21T03:20:14;4.37;;;2.20;;
15936;SDS011;9163;48.818;8.976;2023-11-21T03:22:42;6.37;;;2.17;;
15936;SDS011;9163;48.818;8.976;2023-11-21T03:25:10;8.07;;;2.33;;
15936;SDS011;9163;48.818;8.976;2023-11-21T03:27:37;3.63;;;2.40;;
15936;SDS011;9163;48.818;8.976;2023-11-21T03:30:07;5.73;;;2.47;;
15936;SDS011;9163;48.818;8.976;2023-11-21T03:32:36;6.77;;;2.33;;
15936;SDS011;9163;48.818;8.976;2023-11-21T03:35:04;6.30;;;2.60;;
15936;SDS011;9163;48.818;8.976;2023-11-21T03:37:32;6.73;;;2.80;;
15936;SDS011;9163;48.818;8.976;2023-11-21T03:39:59;5.30;;;2.40;;
15936;SDS011;9163;48.818;8.976;2023-11-21T03:42:26;7.73;;;2.63;;
15936;SDS011;9163;48.818;8.976;2023-11-21T03:44:53;4.73;;;2.50;;
15936;SDS011;9163;48.818;8.976;2023-11-21T03:47:21;5.50;;;2.80;;
15936;SDS011;9163;48.818;8.976;2023-11-21T03:49:50;6.67;;;2.80;;
15936;SDS011;9163;48.818;8.976;2023-11-21T03:52:17;6.60;;;2.57;;
15936;SDS011;9163;48.818;8.976;2023-11-21T03:54:44;6.83;;;2.60;;
15936;SDS011;9163;48.818;8.976;2023-11-21T03:57:11;7.80;;;3.07;;
15936;SDS011;9163;48.818;8.976;2023-11-21T03:59:39;6.30;;;2.40;;
15936;SDS011;9163;48.818;8.976;2023-11-21T04:02:07;6.87;;;2.87;;
15936;SDS011;9163;48.818;8.976;2023-11-21T04:04:34;6.80;;;3.10;;
15936;SDS011;9163;48.818;8.976;2023-11-21T04:07:04;5.00;;;2.47;;
15936;SDS011;9163;48.818;8.976;2023-11-21T04:09:31;5.97;;;2.50;;
15936;SDS011;9163;48.818;8.976;2023-11-21T04:11:58;4.40;;;2.67;;
15936;SDS011;9163;48.818;8.976;2023-11-21T04:14:26;7.63;;;2.70;;
15936;SDS011;9163;48.818;8.976;2023-11-21T04:16:53;5.87;;;2.57;;
15936;SDS011;9163;48.818;8.976;2023-11-21T04:19:20;8.47;;;3.00;;
15936;SDS011;9163;48.818;8.976;2023-11-21T04:21:47;5.23;;;2.60;;
15936;SDS011;9163;48.818;8.976;2023-11-21T04:24:16;3.97;;;2.30;;
15936;SDS011;9163;48.818;8.976;2023-11-21T04:26:43;5.07;;;2.50;;
15936;SDS011;9163;48.818;8.976;2023-11-21T04:29:11;4.17;;;2.43;;
15936;SDS011;9163;48.818;8.976;2023-11-21T04:31:38;4.60;;;2.00;;
15936;SDS011;9163;48.818;8.976;2023-11-21T04:34:05;5.57;;;2.30;;
15936;SDS011;9163;48.818;8.976;2023-11-21T04:36:33;5.40;;;2.10;;
15936;SDS011;9163;48.818;8.976;2023-11-21T04:39:01;4.47;;;2.23;;
15936;SDS011;9163;48.818;8.976;2023-11-21T04:41:30;6.07;;;1.93;;
15936;SDS011;9163;48.818;8.976;2023-11-21T04:43:57;3.70;;;2.20;;
15936;SDS011;9163;48.818;8.976;2023-11-21T04:46:26;4.60;;;2.00;;
15936;SDS011;9163;48.818;8.976;2023-11-21T04:48:53;5.43;;;1.90;;
15936;SDS011;9163;48.818;8.976;2023-11-21T04:51:20;5.77;;;1.93;;
15936;SDS011;9163;48.818;8.976;2023-11-21T04:53:47;4.80;;;1.63;;
15936;SDS011;9163;48.818;8.976;2023-11-21T04:56:15;3.90;;;1.80;;
15936;SDS011;9163;48.818;8.976;2023-11-21T04:58:44;3.27;;;1.93;;
15936;SDS011;9163;48.818;8.976;2023-11-21T05:01:11;3.73;;;2.00;;
15936;SDS011;9163;48.818;8.976;2023-11-21T05:03:38;3.13;;;1.90;;
15936;SDS011;9163;48.818;8.976;2023-11-21T05:06:06;2.50;;;1.93;;
15936;SDS011;9163;48.818;8.976;2023-11-21T05:08:36;2.90;;;1.80;;
15936;SDS011;9163;48.818;8.976;2023-11-21T05:11:03;4.47;;;1.97;;
15936;SDS011;9163;48.818;8.976;2023-11-21T05:13:33;2.40;;;1.70;;
15936;SDS011;9163;48.818;8.976;2023-11-21T05:16:03;3.27;;;1.80;;
15936;SDS011;9163;48.818;8.976;2023-11-21T05:18:32;2.80;;;1.80;;
15936;SDS011;9163;48.818;8.976;2023-11-21T05:21:00;6.47;;;1.90;;
15936;SDS011;9163;48.818;8.976;2023-11-21T05:23:27;3.90;;;2.00;;
15936;SDS011;9163;48.818;8.976;2023-11-21T05:25:55;3.97;;;2.43;;
15936;SDS011;9163;48.818;8.976;2023-11-21T05:28:22;6.70;;;4.47;;
15936;SDS011;9163;48.818;8.976;2023-11-21T05:30:50;7.33;;;4.20;;
15936;SDS011;9163;48.818;8.976;2023-11-21T05:33:18;6.13;;;4.13;;
15936;SDS011;9163;48.818;8.976;2023-11-21T05:35:45;5.53;;;3.20;;
15936;SDS011;9163;48.818;8.976;2023-11-21T05:38:13;4.43;;;2.37;;
15936;SDS011;9163;48.818;8.976;2023-11-21T05:40:41;5.67;;;2.63;;
15936;SDS011;9163;48.818;8.976;2023-11-21T05:43:07;3.70;;;2.10;;
15936;SDS011;9163;48.818;8.976;2023-11-21T05:45:34;5.13;;;2.20;;
15936;SDS011;9163;48.818;8.976;2023-11-21T05:48:02;4.60;;;1.80;;
15936;SDS011;9163;48.818;8.976;2023-11-21T05:50:31;2.63;;;1.60;;
15936;SDS011;9163;48.818;8.976;2023-11-21T05:52:58;4.73;;;1.87;;
15936;SDS011;9163;48.818;8.976;2023-11-21T05:55:26;2.13;;;1.63;;
15936;SDS011;9163;48.818;8.976;2023-11-21T05:57:53;3.27;;;1.60;;
15936;SDS011;9163;48.818;8.976;2023-11-21T06:00:20;3.57;;;1.97;;
15936;SDS011;9163;48.818;8.976;2023-11-21T06:02:48;4.37;;;2.13;;
15936;SDS011;9163;48.818;8.976;2023-11-21T06:05:18;4.40;;;1.90;;
15936;SDS011;9163;48.818;8.976;2023-11-21T06:07:50;3.53;;;1.90;;
15936;SDS011;9163;48.818;8.976;2023-11-21T06:10:19;3.40;;;1.90;;
15936;SDS011;9163;48.818;8.976;2023-11-21T06:12:46;3.30;;;1.83;;
15936;SDS011;9163;48.818;8.976;2023-11-21T06:15:14;3.70;;;1.90;;
15936;SDS011;9163;48.818;8.976;2023-11-21T06:17:42;3.10;;;1.87;;
15936;SDS011;9163;48.818;8.976;2023-11-21T06:20:10;4.00;;;1.87;;
15936;SDS011;9163;48.818;8.976;2023-11-21T06:22:41;4.33;;;1.97;;
15936;SDS011;9163;48.818;8.976;2023-11-21T06:25:11;3.27;;;2.00;;
15936;SDS011;9163;48.818;8.976;2023-11-21T06:27:40;3.73;;;2.20;;
15936;SDS011;9163;48.818;8.976;2023-11-21T06:30:09;6.70;;;2.60;;
15936;SDS011;9163;48.818;8.976;2023-11-21T06:32:37;3.67;;;2.20;;
15936;SDS011;9163;48.818;8.976;2023-11-21T06:35:05;4.50;;;2.40;;
15936;SDS011;9163;48.818;8.976;2023-11-21T06:37:35;3.90;;;2.00;;
15936;SDS011;9163;48.818;8.976;2023-11-21T06:40:02;4.13;;;2.30;;
15936;SDS011;9163;48.818;8.976;2023-11-21T06:42:32;4.47;;;2.30;;
15936;SDS011;9163;48.818;8.976;2023-11-21T06:45:00;3.20;;;2.20;;
15936;SDS011;9163;48.818;8.976;2023-11-21T06:47:29;4.23;;;2.53;;
15936;SDS011;9163;48.818;8.976;2023-11-21T06:49:56;3.57;;;2.27;;
15936;SDS011;9163;48.818;8.976;2023-11-21T06:52:23;3.47;;;2.00;;
15936;SDS011;9163;48.818;8.976;2023-11-21T06:54:51;6.80;;;3.47;;
15936;SDS011;9163;48.818;8.976;2023-11-21T06:57:18;8.03;;;4.23;;
15936;SDS011;9163;48.818;8.976;2023-11-21T06:59:47;7.30;;;4.63;;
15936;SDS011;9163;48.818;8.976;2023-11-21T07:02:15;7.40;;;4.00;;
15936;SDS011;9163;48.818;8.976;2023-11-21T07:04:44;4.73;;;4.23;;
15936;SDS011;9163;48.818;8.976;2023-11-21T07:07:11;5.07;;;4.40;;
15936;SDS011;9163;48.818;8.976;2023-11-21T07:09:39;7.03;;;3.93;;
15936;SDS011;9163;48.818;8.976;2023-11-21T07:12:06;6.90;;;3.33;;
15936;SDS011;9163;48.818;8.976;2023-11-21T07:14:34;4.97;;;3.37;;
15936;SDS011;9163;48.818;8.976;2023-11-21T07:17:03;4.73;;;3.07;;
15936;SDS011;9163;48.818;8.976;2023-11-21T07:19:32;5.57;;;2.90;;
15936;SDS011;9163;48.818;8.976;2023-11-21T07:21:59;3.37;;;2.93;;
15936;SDS011;9163;48.818;8.976;2023-11-21T07:24:26;6.30;;;3.20;;
15936;SDS011;9163;48.818;8.976;2023-11-21T07:26:54;4.20;;;2.97;;
15936;SDS011;9163;48.818;8.976;2023-11-21T07:29:23;3.83;;;3.10;;
15936;SDS011;9163;48.818;8.976;2023-11-21T07:31:51;5.20;;;2.90;;
15936;SDS011;9163;48.818;8.976;2023-11-21T07:34:19;3.80;;;3.00;;
15936;SDS011;9163;48.818;8.976;2023-11-21T07:36:47;3.67;;;2.90;;
15936;SDS011;9163;48.818;8.976;2023-11-21T07:39:14;4.93;;;3.00;;
15936;SDS011;9163;48.818;8.976;2023-11-21T07:41:41;5.50;;;4.87;;
15936;SDS011;9163;48.818;8.976;2023-11-21T07:44:14;3.90;;;3.50;;
15936;SDS011;9163;48.818;8.976;2023-11-21T07:46:42;3.77;;;3.47;;
15936;SDS011;9163;48.818;8.976;2023-11-21T07:49:10;5.63;;;3.80;;
15936;SDS011;9163;48.818;8.976;2023-11-21T07:51:38;2.83;;;2.60;;
15936;SDS011;9163;48.818;8.976;2023-11-21T07:54:05;5.27;;;2.60;;
15936;SDS011;9163;48.818;8.976;2023-11-21T07:56:33;4.00;;;2.73;;
15936;SDS011;9163;48.818;8.976;2023-11-21T07:59:00;3.73;;;2.60;;
15936;SDS011;9163;48.818;8.976;2023-11-21T08:01:27;3.57;;;2.70;;
15936;SDS011;9163;48.818;8.976;2023-11-21T08:03:54;4.13;;;2.57;;
15936;SDS011;9163;48.818;8.976;2023-11-21T08:06:24;3.97;;;2.30;;
15936;SDS011;9163;48.818;8.976;2023-11-21T08:08:53;5.97;;;3.03;;
15936;SDS011;9163;48.818;8.976;2023-11-21T08:11:20;4.63;;;2.23;;
15936;SDS011;9163;48.818;8.976;2023-11-21T08:13:48;4.03;;;2.80;;
15936;SDS011;9163;48.818;8.976;2023-11-21T08:16:15;4.60;;;2.53;;
15936;SDS011;9163;48.818;8.976;2023-11-21T08:18:42;4.30;;;2.87;;
15936;SDS011;9163;48.818;8.976;2023-11-21T08:21:09;4.43;;;2.50;;
15936;SDS011;9163;48.818;8.976;2023-11-21T08:23:39;3.63;;;2.40;;
15936;SDS011;9163;48.818;8.976;2023-11-21T08:26:08;5.37;;;2.40;;
15936;SDS011;9163;48.818;8.976;2023-11-21T08:28:35;3.97;;;2.60;;
15936;SDS011;9163;48.818;8.976;2023-11-21T08:31:02;5.40;;;2.97;;
15936;SDS011;9163;48.818;8.976;2023-11-21T08:33:30;5.17;;;3.10;;
15936;SDS011;9163;48.818;8.976;2023-11-21T08:35:57;6.57;;;3.10;;
15936;SDS011;9163;48.818;8.976;2023-11-21T08:38:26;4.30;;;3.10;;
15936;SDS011;9163;48.818;8.976;2023-11-21T08:40:54;4.57;;;2.90;;
15936;SDS011;9163;48.818;8.976;2023-11-21T08:43:23;5.10;;;3.10;;
15936;SDS011;9163;48.818;8.976;2023-11-21T08:45:50;6.43;;;4.13;;
15936;SDS011;9163;48.818;8.976;2023-11-21T08:48:18;6.23;;;4.20;;
15936;SDS011;9163;48.818;8.976;2023-11-21T08:50:45;5.50;;;3.80;;
15936;SDS011;9163;48.818;8.976;2023-11-21T08:53:12;5.03;;;3.37;;
15936;SDS011;9163;48.818;8.976;2023-11-21T08:55:39;4.87;;;2.90;;
15936;SDS011;9163;48.818;8.976;2023-11-21T08:58:06;4.97;;;3.20;;
15936;SDS011;9163;48.818;8.976;2023-11-21T09:00:35;3.50;;;2.90;;
15936;SDS011;9163;48.818;8.976;2023-11-21T09:03:03;6.00;;;3.67;;
15936;SDS011;9163;48.818;8.976;2023-11-21T09:05:37;7.33;;;4.40;;
15936;SDS011;9163;48.818;8.976;2023-11-21T09:08:05;7.23;;;4.80;;
15936;SDS011;9163;48.818;8.976;2023-11-21T09:10:33;5.47;;;4.20;;
15936;SDS011;9163;48.818;8.976;2023-11-21T09:13:02;6.00;;;4.17;;
15936;SDS011;9163;48.818;8.976;2023-11-21T09:15:29;6.17;;;4.33;;
15936;SDS011;9163;48.818;8.976;2023-11-21T09:17:58;7.23;;;5.27;;
15936;SDS011;9163;48.818;8.976;2023-11-21T09:20:26;8.77;;;5.63;;
15936;SDS011;9163;48.818;8.976;2023-11-21T09:22:53;10.30;;;6.17;;
15936;SDS011;9163;48.818;8.976;2023-11-21T09:25:21;6.33;;;4.30;;
15936;SDS011;9163;48.818;8.976;2023-11-21T09:27:49;6.07;;;4.57;;
15936;SDS011;9163;48.818;8.976;2023-11-21T09:30:16;6.53;;;4.83;;
15936;SDS011;9163;48.818;8.976;2023-11-21T09:32:43;7.20;;;4.77;;
15936;SDS011;9163;48.818;8.976;2023-11-21T09:35:12;7.10;;;4.70;;
15936;SDS011;9163;48.818;8.976;2023-11-21T09:37:40;4.70;;;4.13;;
15936;SDS011;9163;48.818;8.976;2023-11-21T09:40:09;9.50;;;4.73;;
15936;SDS011;9163;48.818;8.976;2023-11-21T09:42:40;8.33;;;4.80;;
15936;SDS011;9163;48.818;8.976;2023-11-21T09:45:13;6.00;;;4.73;;
15936;SDS011;9163;48.818;8.976;2023-11-21T09:47:45;8.93;;;6.93;;
15936;SDS011;9163;48.818;8.976;2023-11-21T09:50:16;7.00;;;5.40;;
15936;SDS011;9163;48.818;8.976;2023-11-21T09:52:47;7.47;;;6.10;;
15936;SDS011;9163;48.818;8.976;2023-11-21T09:55:26;6.03;;;4.93;;
15936;SDS011;9163;48.818;8.976;2023-11-21T09:57:56;6.97;;;5.70;;
15936;SDS011;9163;48.818;8.976;2023-11-21T10:00:24;9.20;;;7.47;;
15936;SDS011;9163;48.818;8.976;2023-11-21T10:02:53;4.87;;;4.03;;
15936;SDS011;9163;48.818;8.976;2023-11-21T10:05:22;17.23;;;12.73;;
15936;SDS011;9163;48.818;8.976;2023-11-21T10:07:49;10.07;;;8.57;;
15936;SDS011;9163;48.818;8.976;2023-11-21T10:10:18;10.23;;;7.50;;
15936;SDS011;9163;48.818;8.976;2023-11-21T10:12:48;11.10;;;7.23;;
15936;SDS011;9163;48.818;8.976;2023-11-21T10:15:20;6.57;;;5.43;;
15936;SDS011;9163;48.818;8.976;2023-11-21T10:17:50;11.07;;;8.27;;
15936;SDS011;9163;48.818;8.976;2023-11-21T10:20:19;5.33;;;4.83;;
15936;SDS011;9163;48.818;8.976;2023-11-21T10:22:50;3.80;;;3.17;;
15936;SDS011;9163;48.818;8.976;2023-11-21T10:25:17;5.10;;;3.60;;
15936;SDS011;9163;48.818;8.976;2023-11-21T10:27:47;5.87;;;5.27;;
15936;SDS011;9163;48.818;8.976;2023-11-21T10:30:16;3.90;;;3.53;;
15936;SDS011;9163;48.818;8.976;2023-11-21T10:32:44;3.20;;;2.40;;
15936;SDS011;9163;48.818;8.976;2023-11-21T10:35:12;1.33;;;1.10;;
15936;SDS011;9163;48.818;8.976;2023-11-21T10:37:41;2.07;;;1.27;;
15936;SDS011;9163;48.818;8.976;2023-11-21T10:40:09;1.10;;;1.00;;
15936;SDS011;9163;48.818;8.976;2023-11-21T10:42:37;1.00;;;0.90;;
15936;SDS011;9163;48.818;8.976;2023-11-21T10:45:05;6.93;;;1.20;;
15936;SDS011;9163;48.818;8.976;2023-11-21T10:47:37;1.53;;;1.43;;
15936;SDS011;9163;48.818;8.976;2023-11-21T10:50:05;0.50;;;0.50;;
15936;SDS011;9163;48.818;8.976;2023-11-21T10:52:36;0.60;;;0.60;;
15936;SDS011;9163;48.818;8.976;2023-11-21T10:55:17;1.20;;;0.60;;
15936;SDS011;9163;48.818;8.976;2023-11-21T10:57:47;0.57;;;0.57;;
15936;SDS011;9163;48.818;8.976;2023-11-21T11:00:16;2.77;;;0.93;;
15936;SDS011;9163;48.818;8.976;2023-11-21T11:02:46;0.90;;;0.90;;
15936;SDS011;9163;48.818;8.976;2023-11-21T11:05:16;2.00;;;0.57;;
15936;SDS011;9163;48.818;8.976;2023-11-21T11:07:47;0.40;;;0.40;;
15936;SDS011;9163;48.818;8.976;2023-11-21T11:10:19;0.70;;;0.60;;
15936;SDS011;9163;48.818;8.976;2023-11-21T11:12:48;0.63;;;0.53;;
15936;SDS011;9163;48.818;8.976;2023-11-21T11:15:17;0.90;;;0.50;;
15936;SDS011;9163;48.818;8.976;2023-11-21T11:17:46;1.00;;;0.90;;
15936;SDS011;9163;48.818;8.976;2023-11-21T11:20:14;1.43;;;1.33;;
15936;SDS011;9163;48.818;8.976;2023-11-21T11:22:44;2.10;;;1.23;;
15936;SDS011;9163;48.818;8.976;2023-11-21T11:25:34;1.40;;;1.10;;
15936;SDS011;9163;48.818;8.976;2023-11-21T11:28:11;1.67;;;1.57;;
15936;SDS011;9163;48.818;8.976;2023-11-21T11:30:45;1.63;;;1.53;;
15936;SDS011;9163;48.818;8.976;2023-11-21T11:33:22;4.30;;;4.00;;
15936;SDS011;9163;48.818;8.976;2023-11-21T11:35:57;2.97;;;2.60;;
15936;SDS011;9163;48.818;8.976;2023-11-21T11:38:32;3.70;;;3.40;;
15936;SDS011;9163;48.818;8.976;2023-11-21T11:41:02;3.93;;;3.53;;
15936;SDS011;9163;48.818;8.976;2023-11-21T11:43:31;3.77;;;3.27;;
15936;SDS011;9163;48.818;8.976;2023-11-21T11:46:08;5.80;;;4.43;;
15936;SDS011;9163;48.818;8.976;2023-11-21T11:48:37;5.87;;;4.33;;
15936;SDS011;9163;48.818;8.976;2023-11-21T11:51:06;5.00;;;4.50;;
15936;SDS011;9163;48.818;8.976;2023-11-21T11:53:40;5.10;;;4.60;;
15936;SDS011;9163;48.818;8.976;2023-11-21T11:56:26;5.37;;;4.57;;
15936;SDS011;9163;48.818;8.976;2023-11-21T11:58:56;5.70;;;4.57;;
15936;SDS011;9163;48.818;8.976;2023-11-21T12:01:24;5.37;;;4.87;;
15936;SDS011;9163;48.818;8.976;2023-11-21T12:06:56;5.13;;;4.63;;
15936;SDS011;9163;48.818;8.976;2023-11-21T12:09:28;8.30;;;7.50;;
15936;SDS011;9163;48.818;8.976;2023-11-21T12:11:58;5.20;;;4.60;;
15936;SDS011;9163;48.818;8.976;2023-11-21T12:14:26;6.17;;;5.57;;
15936;SDS011;9163;48.818;8.976;2023-11-21T12:16:54;5.60;;;5.10;;
15936;SDS011;9163;48.818;8.976;2023-11-21T12:19:21;5.50;;;5.00;;
15936;SDS011;9163;48.818;8.976;2023-11-21T12:21:49;5.83;;;4.90;;
15936;SDS011;9163;48.818;8.976;2023-11-21T12:24:17;4.50;;;4.10;;
15936;SDS011;9163;48.818;8.976;2023-11-21T12:26:44;6.00;;;4.90;;
15936;SDS011;9163;48.818;8.976;2023-11-21T12:29:13;6.57;;;5.33;;
15936;SDS011;9163;48.818;8.976;2023-11-21T12:31:42;4.97;;;4.50;;
15936;SDS011;9163;48.818;8.976;2023-11-21T12:34:10;4.80;;;4.40;;
15936;SDS011;9163;48.818;8.976;2023-11-21T12:36:37;4.90;;;4.37;;
15936;SDS011;9163;48.818;8.976;2023-11-21T12:39:05;5.47;;;4.97;;
15936;SDS011;9163;48.818;8.976;2023-11-21T12:41:34;4.20;;;3.80;;
15936;SDS011;9163;48.818;8.976;2023-11-21T12:44:02;4.07;;;3.67;;
15936;SDS011;9163;48.818;8.976;2023-11-21T12:46:31;4.63;;;4.23;;
15936;SDS011;9163;48.818;8.976;2023-11-21T12:49:00;5.13;;;3.17;;
15936;SDS011;9163;48.818;8.976;2023-11-21T12:51:27;4.97;;;3.30;;
15936;SDS011;9163;48.818;8.976;2023-11-21T12:53:55;4.00;;;3.43;;
15936;SDS011;9163;48.818;8.976;2023-11-21T12:56:24;4.33;;;3.93;;
15936;SDS011;9163;48.818;8.976;2023-11-21T12:58:53;4.40;;;4.00;;
15936;SDS011;9163;48.818;8.976;2023-11-21T13:01:25;4.80;;;3.93;;
15936;SDS011;9163;48.818;8.976;2023-11-21T13:03:56;4.53;;;4.13;;
15936;SDS011;9163;48.818;8.976;2023-11-21T13:06:25;4.43;;;4.03;;
15936;SDS011;9163;48.818;8.976;2023-11-21T13:08:52;5.60;;;4.10;;
15936;SDS011;9163;48.818;8.976;2023-11-21T13:11:22;3.93;;;3.47;;
15936;SDS011;9163;48.818;8.976;2023-11-21T13:13:51;12.43;;;10.97;;
15936;SDS011;9163;48.818;8.976;2023-11-21T13:16:19;33.63;;;24.47;;
15936;SDS011;9163;48.818;8.976;2023-11-21T13:18:47;281.47;;;141.67;;
15936;SDS011;9163;48.818;8.976;2023-11-21T13:21:16;86.10;;;65.33;;
15936;SDS011;9163;48.818;8.976;2023-11-21T13:23:43;63.37;;;47.50;;
15936;SDS011;9163;48.818;8.976;2023-11-21T13:26:11;32.53;;;23.40;;
15936;SDS011;9163;48.818;8.976;2023-11-21T13:28:40;31.57;;;24.53;;
15936;SDS011;9163;48.818;8.976;2023-11-21T13:31:11;20.60;;;18.33;;
15936;SDS011;9163;48.818;8.976;2023-11-21T13:33:51;3.33;;;2.60;;
15936;SDS011;9163;48.818;8.976;2023-11-21T13:36:24;3.70;;;3.23;;
15936;SDS011;9163;48.818;8.976;2023-11-21T13:38:55;5.47;;;4.90;;
15936;SDS011;9163;48.818;8.976;2023-11-21T13:41:24;4.83;;;4.37;;
15936;SDS011;9163;48.818;8.976;2023-11-21T13:43:56;3.60;;;2.33;;
15936;SDS011;9163;48.818;8.976;2023-11-21T13:46:29;2.20;;;2.00;;
15936;SDS011;9163;48.818;8.976;2023-11-21T13:49:02;3.30;;;3.00;;
15936;SDS011;9163;48.818;8.976;2023-11-21T13:51:36;2.43;;;2.23;;
15936;SDS011;9163;48.818;8.976;2023-11-21T13:54:07;2.40;;;2.20;;
15936;SDS011;9163;48.818;8.976;2023-11-21T13:56:35;2.43;;;1.83;;
15936;SDS011;9163;48.818;8.976;2023-11-21T13:59:02;4.30;;;4.00;;
15936;SDS011;9163;48.818;8.976;2023-11-21T14:01:39;3.70;;;3.40;;
15936;SDS011;9163;48.818;8.976;2023-11-21T14:04:20;4.13;;;2.80;;
15936;SDS011;9163;48.818;8.976;2023-11-21T14:07:02;3.40;;;2.37;;
15936;SDS011;9163;48.818;8.976;2023-11-21T14:09:46;2.87;;;2.60;;
15936;SDS011;9163;48.818;8.976;2023-11-21T14:12:15;6.07;;;4.97;;
15936;SDS011;9163;48.818;8.976;2023-11-21T14:14:42;2.40;;;2.20;;
15936;SDS011;9163;48.818;8.976;2023-11-21T14:17:10;2.43;;;2.10;;
15936;SDS011;9163;48.818;8.976;2023-11-21T14:19:38;3.83;;;3.53;;
15936;SDS011;9163;48.818;8.976;2023-11-21T14:22:10;2.83;;;2.50;;
15936;SDS011;9163;48.818;8.976;2023-11-21T14:24:37;2.27;;;2.07;;
15936;SDS011;9163;48.818;8.976;2023-11-21T14:27:09;8.20;;;7.50;;
15936;SDS011;9163;48.818;8.976;2023-11-21T14:29:37;3.33;;;2.40;;
15936;SDS011;9163;48.818;8.976;2023-11-21T14:32:09;2.73;;;2.40;;
15936;SDS011;9163;48.818;8.976;2023-11-21T14:34:36;2.50;;;1.97;;
15936;SDS011;9163;48.818;8.976;2023-11-21T14:37:03;2.70;;;1.80;;
15936;SDS011;9163;48.818;8.976;2023-11-21T14:39:32;1.80;;;1.60;;
15936;SDS011;9163;48.818;8.976;2023-11-21T14:42:06;2.00;;;1.53;;
15936;SDS011;9163;48.818;8.976;2023-11-21T14:44:33;2.30;;;1.93;;
15936;SDS011;9163;48.818;8.976;2023-11-21T14:47:04;2.37;;;2.10;;
15936;SDS011;9163;48.818;8.976;2023-11-21T14:49:40;2.23;;;2.03;;
15936;SDS011;9163;48.818;8.976;2023-11-21T14:52:18;3.67;;;3.37;;
15936;SDS011;9163;48.818;8.976;2023-11-21T14:57:52;2.57;;;1.70;;
15936;SDS011;9163;48.818;8.976;2023-11-21T15:00:20;3.13;;;2.40;;
15936;SDS011;9163;48.818;8.976;2023-11-21T15:03:10;3.80;;;3.50;;
15936;SDS011;9163;48.818;8.976;2023-11-21T15:05:50;3.33;;;3.03;;
15936;SDS011;9163;48.818;8.976;2023-11-21T15:08:17;4.83;;;4.33;;
15936;SDS011;9163;48.818;8.976;2023-11-21T15:10:48;4.97;;;4.10;;
15936;SDS011;9163;48.818;8.976;2023-11-21T15:13:19;6.80;;;5.50;;
15936;SDS011;9163;48.818;8.976;2023-11-21T15:15:47;7.73;;;7.03;;